sensor_id;sensor_type;location;lat;lon;timestamp;pressure;altitude;pressure_sealevel;temperature;humidity
34241;BME280;20503;50.200;19.508;2022-10-16T00:02:19;101933.95;;;13.02;81.97
34241;BME280;20503;50.200;19.508;2022-10-16T00:07:30;101945.41;;;13.06;81.83
34241;BME280;20503;50.200;19.508;2022-10-16T00:12:40;101940.53;;;12.87;83.91
34241;BME280;20503;50.200;19.508;2022-10-16T00:17:51;101950.12;;;13.12;82.13
34241;BME280;20503;50.200;19.508;2022-10-16T00:23:04;101949.38;;;13.24;81.60
34241;BME280;20503;50.200;19.508;2022-10-16T00:28:13;101956.99;;;13.22;81.94
34241;BME280;20503;50.200;19.508;2022-10-16T00:33:24;101956.40;;;13.26;82.14
34241;BME280;20503;50.200;19.508;2022-10-16T00:38:34;101952.48;;;13.35;81.25
34241;BME280;20503;50.200;19.508;2022-10-16T00:43:48;101960.73;;;13.35;81.35
34241;BME280;20503;50.200;19.508;2022-10-16T00:49:14;101964.07;;;13.31;82.35
34241;BME280;20503;50.200;19.508;2022-10-16T00:54:14;101960.84;;;13.27;82.40
34241;BME280;20503;50.200;19.508;2022-10-16T00:59:28;101956.71;;;13.38;81.34
34241;BME280;20503;50.200;19.508;2022-10-16T01:04:34;101958.23;;;13.40;81.64
34241;BME280;20503;50.200;19.508;2022-10-16T01:09:51;101974.52;;;13.42;81.69
34241;BME280;20503;50.200;19.508;2022-10-16T01:15:02;101973.92;;;13.46;81.39
34241;BME280;20503;50.200;19.508;2022-10-16T01:25:29;101960.48;;;13.58;80.89
34241;BME280;20503;50.200;19.508;2022-10-16T01:30:32;101974.05;;;13.59;80.89
34241;BME280;20503;50.200;19.508;2022-10-16T01:35:41;101966.85;;;13.58;80.77
34241;BME280;20503;50.200;19.508;2022-10-16T01:40:49;101977.38;;;13.55;81.00
34241;BME280;20503;50.200;19.508;2022-10-16T01:45:55;101969.14;;;13.55;80.69
34241;BME280;20503;50.200;19.508;2022-10-16T01:51:08;101964.45;;;13.49;80.80
34241;BME280;20503;50.200;19.508;2022-10-16T01:56:17;101962.62;;;13.35;81.72
34241;BME280;20503;50.200;19.508;2022-10-16T02:01:30;101969.83;;;13.15;82.62
34241;BME280;20503;50.200;19.508;2022-10-16T02:06:37;101971.38;;;13.03;83.09
34241;BME280;20503;50.200;19.508;2022-10-16T02:11:50;101981.94;;;12.85;84.39
34241;BME280;20503;50.200;19.508;2022-10-16T02:16:58;101903.29;;;12.13;85.58
34241;BME280;20503;50.200;19.508;2022-10-16T02:32:35;101975.10;;;12.17;88.46
34241;BME280;20503;50.200;19.508;2022-10-16T02:37:42;101988.74;;;11.96;90.64
34241;BME280;20503;50.200;19.508;2022-10-16T02:42:54;101990.45;;;11.97;90.50
34241;BME280;20503;50.200;19.508;2022-10-16T02:48:03;101991.10;;;11.99;90.33
34241;BME280;20503;50.200;19.508;2022-10-16T02:53:14;101966.39;;;11.70;90.88
34241;BME280;20503;50.200;19.508;2022-10-16T02:58:24;102000.43;;;11.53;92.14
34241;BME280;20503;50.200;19.508;2022-10-16T03:03:35;101995.77;;;11.39;93.71
34241;BME280;20503;50.200;19.508;2022-10-16T03:08:46;101998.07;;;11.72;91.92
34241;BME280;20503;50.200;19.508;2022-10-16T03:13:56;101993.74;;;11.92;90.30
34241;BME280;20503;50.200;19.508;2022-10-16T03:19:07;102005.31;;;12.02;89.43
34241;BME280;20503;50.200;19.508;2022-10-16T03:24:18;102014.20;;;12.04;89.33
34241;BME280;20503;50.200;19.508;2022-10-16T03:29:29;102014.30;;;12.11;88.98
34241;BME280;20503;50.200;19.508;2022-10-16T03:34:39;102015.45;;;12.16;88.54
34241;BME280;20503;50.200;19.508;2022-10-16T03:39:50;102037.97;;;12.26;88.06
34241;BME280;20503;50.200;19.508;2022-10-16T03:45:01;102037.02;;;12.34;87.76
34241;BME280;20503;50.200;19.508;2022-10-16T03:50:12;102026.25;;;12.32;87.53
34241;BME280;20503;50.200;19.508;2022-10-16T03:55:23;102033.73;;;12.53;86.88
34241;BME280;20503;50.200;19.508;2022-10-16T04:00:33;102035.80;;;12.65;86.03
34241;BME280;20503;50.200;19.508;2022-10-16T04:05:44;102048.10;;;12.69;85.57
34241;BME280;20503;50.200;19.508;2022-10-16T04:10:55;102044.89;;;12.51;86.51
34241;BME280;20503;50.200;19.508;2022-10-16T04:16:06;102047.45;;;12.24;87.81
34241;BME280;20503;50.200;19.508;2022-10-16T04:21:16;102049.45;;;12.30;87.81
34241;BME280;20503;50.200;19.508;2022-10-16T04:26:27;102049.88;;;12.19;88.26
34241;BME280;20503;50.200;19.508;2022-10-16T04:31:38;102051.21;;;12.08;88.88
34241;BME280;20503;50.200;19.508;2022-10-16T04:36:48;102050.27;;;12.16;88.65
34241;BME280;20503;50.200;19.508;2022-10-16T04:41:59;102065.03;;;12.15;88.86
34241;BME280;20503;50.200;19.508;2022-10-16T04:47:10;102060.52;;;12.22;88.38
34241;BME280;20503;50.200;19.508;2022-10-16T04:52:21;102060.59;;;12.14;88.97
34241;BME280;20503;50.200;19.508;2022-10-16T04:57:31;102059.09;;;12.26;88.61
34241;BME280;20503;50.200;19.508;2022-10-16T05:02:42;102053.16;;;12.37;88.04
34241;BME280;20503;50.200;19.508;2022-10-16T05:07:53;102063.95;;;12.53;87.26
34241;BME280;20503;50.200;19.508;2022-10-16T05:13:04;102062.15;;;12.45;87.45
34241;BME280;20503;50.200;19.508;2022-10-16T05:18:16;102043.83;;;12.67;86.80
34241;BME280;20503;50.200;19.508;2022-10-16T05:23:25;102049.23;;;12.75;86.48
34241;BME280;20503;50.200;19.508;2022-10-16T05:28:36;102063.60;;;12.91;85.67
34241;BME280;20503;50.200;19.508;2022-10-16T05:33:47;102059.62;;;13.08;84.76
34241;BME280;20503;50.200;19.508;2022-10-16T05:38:58;102058.00;;;13.13;84.47
34241;BME280;20503;50.200;19.508;2022-10-16T05:44:11;102063.41;;;13.07;84.88
34241;BME280;20503;50.200;19.508;2022-10-16T05:49:19;102079.37;;;13.32;83.59
34241;BME280;20503;50.200;19.508;2022-10-16T05:54:30;102100.46;;;13.25;83.96
34241;BME280;20503;50.200;19.508;2022-10-16T05:59:41;102106.61;;;13.27;84.05
34241;BME280;20503;50.200;19.508;2022-10-16T06:04:51;102108.52;;;13.27;84.35
34241;BME280;20503;50.200;19.508;2022-10-16T06:10:03;102117.70;;;13.34;84.25
34241;BME280;20503;50.200;19.508;2022-10-16T06:15:13;102120.53;;;13.40;84.19
34241;BME280;20503;50.200;19.508;2022-10-16T06:20:23;102137.77;;;13.49;83.87
34241;BME280;20503;50.200;19.508;2022-10-16T06:25:34;102145.38;;;13.68;83.74
34241;BME280;20503;50.200;19.508;2022-10-16T06:30:45;102157.41;;;14.02;82.65
34241;BME280;20503;50.200;19.508;2022-10-16T06:41:12;102159.95;;;14.25;82.02
34241;BME280;20503;50.200;19.508;2022-10-16T06:46:21;102172.20;;;14.71;79.29
34241;BME280;20503;50.200;19.508;2022-10-16T06:51:28;102180.18;;;14.59;79.51
34241;BME280;20503;50.200;19.508;2022-10-16T06:56:39;102176.38;;;14.60;79.39
34241;BME280;20503;50.200;19.508;2022-10-16T07:01:50;102173.45;;;14.96;78.25
34241;BME280;20503;50.200;19.508;2022-10-16T07:07:00;102186.01;;;15.38;76.63
34241;BME280;20503;50.200;19.508;2022-10-16T07:12:11;102187.94;;;16.11;74.10
34241;BME280;20503;50.200;19.508;2022-10-16T07:17:22;102181.43;;;16.51;71.03
34241;BME280;20503;50.200;19.508;2022-10-16T07:22:32;102187.59;;;16.46;71.17
34241;BME280;20503;50.200;19.508;2022-10-16T07:27:43;102193.52;;;16.63;70.52
34241;BME280;20503;50.200;19.508;2022-10-16T07:32:54;102196.71;;;16.99;68.29
34241;BME280;20503;50.200;19.508;2022-10-16T07:38:05;102189.63;;;17.79;65.98
34241;BME280;20503;50.200;19.508;2022-10-16T07:43:15;102186.20;;;17.83;66.12
34241;BME280;20503;50.200;19.508;2022-10-16T07:48:28;102191.62;;;17.65;65.26
34241;BME280;20503;50.200;19.508;2022-10-16T07:53:38;102210.80;;;17.60;65.50
34241;BME280;20503;50.200;19.508;2022-10-16T07:58:49;102209.29;;;17.71;65.44
34241;BME280;20503;50.200;19.508;2022-10-16T08:03:58;102208.93;;;17.98;64.68
34241;BME280;20503;50.200;19.508;2022-10-16T08:09:09;102218.20;;;18.10;65.36
34241;BME280;20503;50.200;19.508;2022-10-16T08:14:20;102216.84;;;18.32;63.27
34241;BME280;20503;50.200;19.508;2022-10-16T08:19:31;102216.00;;;17.37;66.38
34241;BME280;20503;50.200;19.508;2022-10-16T08:24:41;102219.89;;;17.80;65.79
34241;BME280;20503;50.200;19.508;2022-10-16T08:29:52;102220.19;;;18.03;65.17
34241;BME280;20503;50.200;19.508;2022-10-16T08:35:03;102217.20;;;18.05;66.14
34241;BME280;20503;50.200;19.508;2022-10-16T08:40:26;102221.63;;;17.75;66.38
34241;BME280;20503;50.200;19.508;2022-10-16T08:45:40;102233.14;;;17.72;66.98
34241;BME280;20503;50.200;19.508;2022-10-16T08:50:41;102239.80;;;18.02;66.99
34241;BME280;20503;50.200;19.508;2022-10-16T08:55:51;102262.22;;;18.00;66.40
34241;BME280;20503;50.200;19.508;2022-10-16T09:01:00;102251.38;;;17.86;67.52
34241;BME280;20503;50.200;19.508;2022-10-16T09:16:44;102241.28;;;18.97;62.99
34241;BME280;20503;50.200;19.508;2022-10-16T09:21:46;102247.25;;;19.79;59.73
34241;BME280;20503;50.200;19.508;2022-10-16T09:26:50;102258.16;;;19.20;61.19
34241;BME280;20503;50.200;19.508;2022-10-16T09:32:12;102258.93;;;19.27;60.94
34241;BME280;20503;50.200;19.508;2022-10-16T09:37:18;102247.27;;;19.18;60.89
34241;BME280;20503;50.200;19.508;2022-10-16T09:42:32;102255.16;;;18.73;62.46
34241;BME280;20503;50.200;19.508;2022-10-16T09:47:40;102257.41;;;18.58;63.49
34241;BME280;20503;50.200;19.508;2022-10-16T09:52:44;102258.78;;;19.22;61.91
34241;BME280;20503;50.200;19.508;2022-10-16T09:57:55;102264.56;;;18.96;62.59
34241;BME280;20503;50.200;19.508;2022-10-16T10:03:10;102267.32;;;19.45;60.77
34241;BME280;20503;50.200;19.508;2022-10-16T10:08:17;102266.12;;;20.24;59.47
34241;BME280;20503;50.200;19.508;2022-10-16T10:13:27;102282.28;;;19.98;58.50
34241;BME280;20503;50.200;19.508;2022-10-16T10:19:00;102287.40;;;19.83;59.92
34241;BME280;20503;50.200;19.508;2022-10-16T10:24:05;102281.64;;;19.42;61.13
34241;BME280;20503;50.200;19.508;2022-10-16T10:39:53;102263.07;;;19.60;61.56
34241;BME280;20503;50.200;19.508;2022-10-16T10:55:36;102260.88;;;20.87;58.37
34241;BME280;20503;50.200;19.508;2022-10-16T11:00:55;102270.09;;;20.58;59.07
34241;BME280;20503;50.200;19.508;2022-10-16T11:06:00;102272.02;;;19.80;60.05
34241;BME280;20503;50.200;19.508;2022-10-16T11:11:11;102255.88;;;19.53;61.36
34241;BME280;20503;50.200;19.508;2022-10-16T11:16:21;102264.30;;;19.64;61.95
34241;BME280;20503;50.200;19.508;2022-10-16T11:21:28;102263.85;;;19.85;61.49
34241;BME280;20503;50.200;19.508;2022-10-16T11:26:34;102246.30;;;19.85;60.89
34241;BME280;20503;50.200;19.508;2022-10-16T11:31:43;102266.45;;;20.46;60.20
34241;BME280;20503;50.200;19.508;2022-10-16T11:37:02;102262.77;;;20.34;60.90
34241;BME280;20503;50.200;19.508;2022-10-16T11:52:35;102272.48;;;20.13;60.68
34241;BME280;20503;50.200;19.508;2022-10-16T11:57:52;102274.20;;;20.44;60.84
34241;BME280;20503;50.200;19.508;2022-10-16T12:03:03;102274.45;;;20.54;60.29
34241;BME280;20503;50.200;19.508;2022-10-16T12:08:11;102262.34;;;20.19;60.25
34241;BME280;20503;50.200;19.508;2022-10-16T12:18:27;102263.06;;;21.88;57.18
34241;BME280;20503;50.200;19.508;2022-10-16T12:23:28;102267.45;;;21.15;57.40
34241;BME280;20503;50.200;19.508;2022-10-16T12:28:31;102271.21;;;21.20;56.75
34241;BME280;20503;50.200;19.508;2022-10-16T12:33:36;102273.77;;;21.22;56.70
34241;BME280;20503;50.200;19.508;2022-10-16T12:38:48;102287.69;;;20.70;57.96
34241;BME280;20503;50.200;19.508;2022-10-16T12:43:54;102292.17;;;21.11;57.19
34241;BME280;20503;50.200;19.508;2022-10-16T12:49:20;102291.31;;;21.00;56.53
34241;BME280;20503;50.200;19.508;2022-10-16T12:54:29;102296.43;;;21.25;56.03
34241;BME280;20503;50.200;19.508;2022-10-16T13:04:59;102301.84;;;20.98;57.17
34241;BME280;20503;50.200;19.508;2022-10-16T13:20:35;102309.47;;;20.32;57.70
34241;BME280;20503;50.200;19.508;2022-10-16T13:25:48;102300.60;;;19.87;59.93
34241;BME280;20503;50.200;19.508;2022-10-16T13:30:52;102314.85;;;19.55;60.96
34241;BME280;20503;50.200;19.508;2022-10-16T13:35:56;102318.12;;;19.88;60.21
34241;BME280;20503;50.200;19.508;2022-10-16T13:41:11;102318.45;;;21.15;56.41
34241;BME280;20503;50.200;19.508;2022-10-16T13:46:15;102307.02;;;22.09;53.12
34241;BME280;20503;50.200;19.508;2022-10-16T13:51:18;102311.45;;;21.47;54.38
34241;BME280;20503;50.200;19.508;2022-10-16T13:56:30;102325.27;;;22.67;52.18
34241;BME280;20503;50.200;19.508;2022-10-16T14:01:41;102322.63;;;22.21;52.11
34241;BME280;20503;50.200;19.508;2022-10-16T14:06:49;102333.63;;;22.00;53.59
34241;BME280;20503;50.200;19.508;2022-10-16T14:12:00;102313.05;;;22.85;51.81
34241;BME280;20503;50.200;19.508;2022-10-16T14:17:15;102307.89;;;21.98;53.87
34241;BME280;20503;50.200;19.508;2022-10-16T14:27:35;102280.59;;;23.66;49.61
34241;BME280;20503;50.200;19.508;2022-10-16T14:37:53;102310.98;;;23.24;51.12
34241;BME280;20503;50.200;19.508;2022-10-16T14:43:05;102323.80;;;22.93;52.62
34241;BME280;20503;50.200;19.508;2022-10-16T14:48:16;102334.69;;;22.10;55.17
34241;BME280;20503;50.200;19.508;2022-10-16T14:53:22;102357.91;;;21.76;56.07
34241;BME280;20503;50.200;19.508;2022-10-16T14:58:33;102352.66;;;21.34;56.61
34241;BME280;20503;50.200;19.508;2022-10-16T15:03:44;102357.78;;;20.19;60.66
34241;BME280;20503;50.200;19.508;2022-10-16T15:08:54;102370.19;;;19.07;64.33
34241;BME280;20503;50.200;19.508;2022-10-16T15:14:05;102363.38;;;19.03;65.78
34241;BME280;20503;50.200;19.508;2022-10-16T15:19:16;102364.59;;;18.83;66.13
34241;BME280;20503;50.200;19.508;2022-10-16T15:24:26;102356.36;;;18.20;68.39
34241;BME280;20503;50.200;19.508;2022-10-16T15:29:37;102362.49;;;17.71;70.53
34241;BME280;20503;50.200;19.508;2022-10-16T15:34:48;102378.50;;;17.37;72.15
34241;BME280;20503;50.200;19.508;2022-10-16T15:39:59;102365.08;;;17.14;73.31
34241;BME280;20503;50.200;19.508;2022-10-16T15:45:11;102368.67;;;16.83;74.87
34241;BME280;20503;50.200;19.508;2022-10-16T15:50:20;102375.63;;;16.59;75.56
34241;BME280;20503;50.200;19.508;2022-10-16T15:55:31;102384.73;;;16.40;76.08
34241;BME280;20503;50.200;19.508;2022-10-16T16:00:42;102384.19;;;16.24;76.21
34241;BME280;20503;50.200;19.508;2022-10-16T16:05:53;102364.97;;;16.03;76.34
34241;BME280;20503;50.200;19.508;2022-10-16T16:11:12;102388.51;;;15.92;76.83
34241;BME280;20503;50.200;19.508;2022-10-16T16:16:16;102389.98;;;15.95;76.63
34241;BME280;20503;50.200;19.508;2022-10-16T16:21:25;102404.58;;;15.82;77.10
34241;BME280;20503;50.200;19.508;2022-10-16T16:26:36;102422.88;;;15.56;78.07
34241;BME280;20503;50.200;19.508;2022-10-16T16:31:46;102421.27;;;15.40;79.53
34241;BME280;20503;50.200;19.508;2022-10-16T16:36:57;102428.15;;;15.51;79.13
34241;BME280;20503;50.200;19.508;2022-10-16T16:42:07;102421.92;;;15.70;78.25
34241;BME280;20503;50.200;19.508;2022-10-16T16:47:18;102423.16;;;15.67;78.03
34241;BME280;20503;50.200;19.508;2022-10-16T16:52:29;102443.84;;;15.50;78.79
34241;BME280;20503;50.200;19.508;2022-10-16T16:57:40;102451.17;;;15.37;79.12
34241;BME280;20503;50.200;19.508;2022-10-16T17:02:50;102447.85;;;15.27;80.03
34241;BME280;20503;50.200;19.508;2022-10-16T17:08:01;102460.20;;;15.10;80.99
34241;BME280;20503;50.200;19.508;2022-10-16T17:13:12;102466.45;;;15.18;80.83
34241;BME280;20503;50.200;19.508;2022-10-16T17:18:23;102471.72;;;15.13;80.67
34241;BME280;20503;50.200;19.508;2022-10-16T17:23:35;102476.28;;;15.06;80.96
34241;BME280;20503;50.200;19.508;2022-10-16T17:28:44;102477.09;;;15.01;81.32
34241;BME280;20503;50.200;19.508;2022-10-16T17:33:57;102489.75;;;14.95;81.40
34241;BME280;20503;50.200;19.508;2022-10-16T17:44:25;102515.76;;;14.72;82.24
34241;BME280;20503;50.200;19.508;2022-10-16T17:49:36;102519.88;;;14.61;83.26
34241;BME280;20503;50.200;19.508;2022-10-16T17:54:49;102522.05;;;14.66;82.94
34241;BME280;20503;50.200;19.508;2022-10-16T17:59:58;102522.73;;;14.39;84.31
34241;BME280;20503;50.200;19.508;2022-10-16T18:05:08;102532.53;;;14.41;84.82
34241;BME280;20503;50.200;19.508;2022-10-16T18:10:19;102539.47;;;14.66;83.35
34241;BME280;20503;50.200;19.508;2022-10-16T18:15:30;102549.91;;;14.27;84.88
34241;BME280;20503;50.200;19.508;2022-10-16T18:20:41;102559.48;;;13.43;89.50
34241;BME280;20503;50.200;19.508;2022-10-16T18:25:51;102564.89;;;13.51;90.25
34241;BME280;20503;50.200;19.508;2022-10-16T18:31:07;102565.32;;;13.99;88.63
34241;BME280;20503;50.200;19.508;2022-10-16T18:36:14;102569.58;;;14.39;86.15
34241;BME280;20503;50.200;19.508;2022-10-16T18:41:25;102565.14;;;14.52;85.24
34241;BME280;20503;50.200;19.508;2022-10-16T18:46:35;102576.82;;;14.54;84.83
34241;BME280;20503;50.200;19.508;2022-10-16T18:51:45;102589.28;;;14.13;86.31
34241;BME280;20503;50.200;19.508;2022-10-16T18:56:56;102590.69;;;14.46;85.47
34241;BME280;20503;50.200;19.508;2022-10-16T19:02:08;102599.80;;;14.61;84.31
34241;BME280;20503;50.200;19.508;2022-10-16T19:07:17;102608.36;;;14.37;84.94
34241;BME280;20503;50.200;19.508;2022-10-16T19:12:28;102611.96;;;14.38;85.55
34241;BME280;20503;50.200;19.508;2022-10-16T19:17:39;102615.66;;;14.30;85.44
34241;BME280;20503;50.200;19.508;2022-10-16T19:22:50;102626.33;;;14.33;85.92
34241;BME280;20503;50.200;19.508;2022-10-16T19:28:00;102622.03;;;14.31;85.84
34241;BME280;20503;50.200;19.508;2022-10-16T19:33:11;102622.68;;;14.18;86.29
34241;BME280;20503;50.200;19.508;2022-10-16T19:38:22;102630.31;;;14.08;86.94
34241;BME280;20503;50.200;19.508;2022-10-16T19:43:32;102633.35;;;14.13;86.92
34241;BME280;20503;50.200;19.508;2022-10-16T19:48:44;102645.79;;;14.09;87.11
34241;BME280;20503;50.200;19.508;2022-10-16T19:53:57;102649.73;;;13.92;88.00
34241;BME280;20503;50.200;19.508;2022-10-16T19:59:06;102646.92;;;14.00;87.91
34241;BME280;20503;50.200;19.508;2022-10-16T20:04:16;102653.03;;;13.88;88.21
34241;BME280;20503;50.200;19.508;2022-10-16T20:09:26;102655.06;;;13.94;88.35
34241;BME280;20503;50.200;19.508;2022-10-16T20:14:37;102661.22;;;13.51;89.32
34241;BME280;20503;50.200;19.508;2022-10-16T20:19:48;102661.54;;;13.25;91.62
34241;BME280;20503;50.200;19.508;2022-10-16T20:24:58;102665.41;;;13.69;90.34
34241;BME280;20503;50.200;19.508;2022-10-16T20:30:09;102673.05;;;13.82;88.71
34241;BME280;20503;50.200;19.508;2022-10-16T20:35:20;102678.34;;;13.83;88.13
34241;BME280;20503;50.200;19.508;2022-10-16T20:40:34;102685.35;;;13.94;88.50
34241;BME280;20503;50.200;19.508;2022-10-16T20:45:42;102692.38;;;13.43;88.47
34241;BME280;20503;50.200;19.508;2022-10-16T20:50:52;102703.84;;;12.54;92.64
34241;BME280;20503;50.200;19.508;2022-10-16T20:56:03;102704.64;;;12.87;95.18
34241;BME280;20503;50.200;19.508;2022-10-16T21:01:17;102703.92;;;13.39;92.74
34241;BME280;20503;50.200;19.508;2022-10-16T21:06:25;102711.88;;;12.64;93.12
34241;BME280;20503;50.200;19.508;2022-10-16T21:11:36;102718.81;;;12.20;97.40
34241;BME280;20503;50.200;19.508;2022-10-16T21:16:46;102716.89;;;12.52;98.33
34241;BME280;20503;50.200;19.508;2022-10-16T21:21:57;102727.50;;;12.71;95.12
34241;BME280;20503;50.200;19.508;2022-10-16T21:27:08;102725.63;;;12.64;93.58
34241;BME280;20503;50.200;19.508;2022-10-16T21:32:18;102730.45;;;12.14;96.46
34241;BME280;20503;50.200;19.508;2022-10-16T21:37:29;102743.14;;;11.91;99.95
34241;BME280;20503;50.200;19.508;2022-10-16T21:42:40;102737.27;;;12.90;96.71
34241;BME280;20503;50.200;19.508;2022-10-16T21:47:50;102749.63;;;11.82;97.84
34241;BME280;20503;50.200;19.508;2022-10-16T21:53:01;102755.59;;;11.28;100.00
34241;BME280;20503;50.200;19.508;2022-10-16T21:58:12;102764.02;;;11.01;100.00
34241;BME280;20503;50.200;19.508;2022-10-16T22:03:23;102770.16;;;10.95;100.00
34241;BME280;20503;50.200;19.508;2022-10-16T22:08:35;102773.14;;;11.10;100.00
34241;BME280;20503;50.200;19.508;2022-10-16T22:13:45;102777.02;;;10.99;100.00
34241;BME280;20503;50.200;19.508;2022-10-16T22:18:56;102783.08;;;11.44;100.00
34241;BME280;20503;50.200;19.508;2022-10-16T22:24:06;102780.21;;;11.20;100.00
34241;BME280;20503;50.200;19.508;2022-10-16T22:29:16;102780.55;;;11.17;100.00
34241;BME280;20503;50.200;19.508;2022-10-16T22:34:27;102771.61;;;11.07;100.00
34241;BME280;20503;50.200;19.508;2022-10-16T22:39:38;102783.62;;;11.14;100.00
34241;BME280;20503;50.200;19.508;2022-10-16T22:44:48;102777.11;;;11.15;100.00
34241;BME280;20503;50.200;19.508;2022-10-16T22:49:59;102786.09;;;11.25;100.00
34241;BME280;20503;50.200;19.508;2022-10-16T22:55:10;102783.70;;;11.30;100.00
34241;BME280;20503;50.200;19.508;2022-10-16T23:00:21;102784.52;;;11.22;100.00
34241;BME280;20503;50.200;19.508;2022-10-16T23:05:32;102789.37;;;11.28;100.00
34241;BME280;20503;50.200;19.508;2022-10-16T23:10:44;102791.30;;;10.60;100.00
34241;BME280;20503;50.200;19.508;2022-10-16T23:15:53;102792.69;;;10.38;100.00
34241;BME280;20503;50.200;19.508;2022-10-16T23:21:09;102794.77;;;10.44;100.00
34241;BME280;20503;50.200;19.508;2022-10-16T23:26:17;102807.64;;;9.99;100.00
34241;BME280;20503;50.200;19.508;2022-10-16T23:31:26;102805.99;;;9.89;100.00
34241;BME280;20503;50.200;19.508;2022-10-16T23:36:36;102800.80;;;10.30;100.00
34241;BME280;20503;50.200;19.508;2022-10-16T23:41:47;102801.95;;;10.63;100.00
34241;BME280;20503;50.200;19.508;2022-10-16T23:46:58;102812.83;;;10.37;100.00
34241;BME280;20503;50.200;19.508;2022-10-16T23:52:08;102824.37;;;9.96;100.00
34241;BME280;20503;50.200;19.508;2022-10-16T23:57:19;102820.61;;;10.24;100.00
